createdAt,value
2022-10-29T00:01:38.084Z,83.63
2022-10-29T00:04:05.407Z,83.57
2022-10-29T00:06:32.595Z,83.91
2022-10-29T00:08:59.766Z,84.40
2022-10-29T00:11:27.164Z,84.18
2022-10-29T00:13:57.474Z,84.61
2022-10-29T00:16:27.232Z,84.92
2022-10-29T00:18:55.696Z,84.97
2022-10-29T00:21:25.077Z,85.18
2022-10-29T00:23:52.578Z,85.37
2022-10-29T00:26:21.661Z,85.72
2022-10-29T00:28:51.586Z,85.78
2022-10-29T00:31:19.895Z,86.11
2022-10-29T00:33:47.355Z,86.65
2022-10-29T00:36:18.087Z,86.72
2022-10-29T00:38:45.250Z,86.73
2022-10-29T00:41:15.633Z,87.18
2022-10-29T00:43:48.276Z,87.32
2022-10-29T00:46:21.363Z,87.73
2022-10-29T00:48:50.931Z,88.00
2022-10-29T00:51:18.674Z,87.62
2022-10-29T00:53:52.522Z,87.86
2022-10-29T00:56:19.713Z,88.24
2022-10-29T00:58:46.974Z,88.95
2022-10-29T01:01:14.805Z,88.52
2022-10-29T01:03:43.136Z,87.72
2022-10-29T01:06:10.636Z,88.08
2022-10-29T01:08:37.811Z,87.58
2022-10-29T01:11:42.895Z,87.96
2022-10-29T01:14:18.632Z,88.07
2022-10-29T01:17:00.194Z,88.06
2022-10-29T01:19:54.385Z,88.37
2022-10-29T01:22:43.546Z,88.76
2022-10-29T01:25:29.578Z,88.73
2022-10-29T01:28:34.264Z,88.48
2022-10-29T01:31:27.465Z,88.83
2022-10-29T01:34:04.940Z,88.94
2022-10-29T01:36:55.377Z,89.48
2022-10-29T01:39:31.639Z,89.17
2022-10-29T01:42:28.045Z,89.57
2022-10-29T01:45:03.192Z,89.65
2022-10-29T01:47:34.627Z,89.47
2022-10-29T01:50:03.820Z,89.68
2022-10-29T01:52:32.348Z,90.00
2022-10-29T01:54:59.554Z,90.23
2022-10-29T01:57:31.726Z,90.03
2022-10-29T02:00:11.136Z,90.18
2022-10-29T02:03:06.642Z,90.50
2022-10-29T02:05:56.014Z,90.76
2022-10-29T02:08:34.978Z,90.91
2022-10-29T02:11:25.344Z,91.13
2022-10-29T02:14:01.487Z,91.82
2022-10-29T02:16:29.576Z,91.40
2022-10-29T02:18:58.058Z,91.86
2022-10-29T02:21:25.246Z,92.22
2022-10-29T02:23:52.875Z,92.06
2022-10-29T02:26:21.746Z,91.71
2022-10-29T02:28:48.941Z,92.12
2022-10-29T02:31:16.138Z,92.37
2022-10-29T02:33:43.324Z,92.29
2022-10-29T02:36:10.579Z,91.62
2022-10-29T02:38:37.914Z,91.17
2022-10-29T02:41:05.163Z,90.64
2022-10-29T02:43:32.371Z,90.64
2022-10-29T02:46:17.131Z,90.26
2022-10-29T02:48:44.286Z,90.94
2022-10-29T02:51:11.930Z,90.31
2022-10-29T02:53:39.312Z,90.11
2022-10-29T02:56:07.537Z,90.06
2022-10-29T02:58:35.194Z,90.14
2022-10-29T03:01:02.965Z,90.27
2022-10-29T03:03:30.496Z,90.25
2022-10-29T03:05:57.679Z,89.97
2022-10-29T03:08:24.822Z,89.96
2022-10-29T03:10:51.998Z,90.25
2022-10-29T03:13:19.155Z,90.70
2022-10-29T03:15:46.648Z,90.42
2022-10-29T03:18:13.804Z,90.81
2022-10-29T03:20:40.974Z,90.93
2022-10-29T03:23:08.119Z,91.23
2022-10-29T03:25:35.273Z,91.57
2022-10-29T03:28:02.419Z,91.66
2022-10-29T03:30:29.571Z,91.80
2022-10-29T03:32:56.896Z,91.95
2022-10-29T03:35:24.217Z,92.61
2022-10-29T03:37:52.193Z,92.33
2022-10-29T03:40:19.712Z,93.03
2022-10-29T03:42:46.910Z,92.56
2022-10-29T03:45:14.164Z,92.57
2022-10-29T03:47:41.353Z,92.53
2022-10-29T03:50:09.139Z,93.06
2022-10-29T03:52:36.290Z,92.77
2022-10-29T03:55:03.704Z,92.78
2022-10-29T03:57:30.889Z,93.31
2022-10-29T03:59:58.187Z,93.15
2022-10-29T04:02:25.617Z,93.13
2022-10-29T04:04:52.873Z,93.00
2022-10-29T04:07:20.035Z,93.21
2022-10-29T04:09:47.181Z,93.06
2022-10-29T04:12:14.349Z,93.59
2022-10-29T04:14:45.471Z,93.60
2022-10-29T04:17:13.284Z,93.35
2022-10-29T04:19:40.617Z,93.25
2022-10-29T04:28:10.298Z,93.47
2022-10-29T04:30:29.248Z,93.20
2022-10-29T04:32:58.337Z,93.80
2022-10-29T04:35:27.104Z,93.30
2022-10-29T04:37:55.452Z,93.59
2022-10-29T04:40:24.398Z,93.40
2022-10-29T04:42:51.752Z,93.97
2022-10-29T04:45:19.352Z,93.80
2022-10-29T04:47:46.697Z,93.27
2022-10-29T04:50:13.875Z,93.43
2022-10-29T04:52:41.062Z,93.63
2022-10-29T04:55:08.477Z,93.42
2022-10-29T04:57:35.610Z,93.82
2022-10-29T05:00:03.331Z,93.93
2022-10-29T05:02:30.492Z,93.70
2022-10-29T05:04:57.694Z,94.05
2022-10-29T05:07:24.842Z,93.58
2022-10-29T05:09:51.997Z,93.64
2022-10-29T05:12:19.122Z,93.52
2022-10-29T05:14:46.290Z,93.44
2022-10-29T05:17:13.496Z,93.65
2022-10-29T05:19:41.033Z,93.87
2022-10-29T05:22:08.177Z,93.81
2022-10-29T05:24:35.348Z,94.25
2022-10-29T05:27:03.325Z,94.60
2022-10-29T05:29:30.523Z,95.45
2022-10-29T05:31:57.672Z,95.99
2022-10-29T05:34:24.874Z,95.58
2022-10-29T05:36:52.015Z,95.68
2022-10-29T05:39:19.198Z,95.73
2022-10-29T05:41:47.051Z,95.78
2022-10-29T05:44:14.246Z,96.10
2022-10-29T05:46:41.386Z,96.30
2022-10-29T05:49:08.570Z,96.13
2022-10-29T05:51:35.742Z,96.15
2022-10-29T05:54:03.017Z,95.71
2022-10-29T05:56:30.163Z,95.55
2022-10-29T05:58:57.380Z,95.43
2022-10-29T06:01:24.560Z,95.84
2022-10-29T06:06:19.923Z,95.65
2022-10-29T06:08:47.103Z,95.67
2022-10-29T06:11:14.241Z,95.78
2022-10-29T06:13:41.405Z,96.42
2022-10-29T06:16:08.847Z,96.69
2022-10-29T06:18:36.172Z,96.75
2022-10-29T06:21:03.331Z,96.29
2022-10-29T06:23:30.542Z,96.44
2022-10-29T06:26:01.756Z,96.57
2022-10-29T06:28:33.586Z,96.00
2022-10-29T06:31:02.120Z,96.36
2022-10-29T06:33:29.267Z,96.08
2022-10-29T06:36:00.426Z,96.28
2022-10-29T06:38:27.609Z,96.57
2022-10-29T06:40:54.807Z,96.82
2022-10-29T06:43:22.309Z,96.52
2022-10-29T06:45:52.739Z,97.14
2022-10-29T06:48:22.292Z,97.13
2022-10-29T06:50:50.510Z,96.85
2022-10-29T06:53:17.993Z,97.38
2022-10-29T06:55:45.214Z,97.02
2022-10-29T06:58:17.549Z,97.02
2022-10-29T07:00:45.390Z,97.62
2022-10-29T07:03:13.740Z,98.15
2022-10-29T07:05:43.672Z,98.89
2022-10-29T07:08:11.014Z,99.25
2022-10-29T07:10:38.305Z,98.62
2022-10-29T07:13:08.059Z,98.41
2022-10-29T07:15:35.215Z,97.69
2022-10-29T07:18:04.281Z,97.33
2022-10-29T07:20:33.446Z,96.82
2022-10-29T07:23:01.422Z,96.67
2022-10-29T07:25:30.008Z,96.25
2022-10-29T07:28:03.968Z,95.91
2022-10-29T07:30:31.386Z,95.46
2022-10-29T07:32:58.526Z,95.34
2022-10-29T07:35:25.703Z,95.21
2022-10-29T07:37:53.003Z,94.84
2022-10-29T07:40:20.329Z,94.17
2022-10-29T07:42:52.734Z,93.39
2022-10-29T07:45:20.054Z,92.87
2022-10-29T07:47:47.236Z,92.17
2022-10-29T07:50:14.448Z,91.56
2022-10-29T07:52:42.056Z,90.83
2022-10-29T07:55:09.604Z,90.56
2022-10-29T07:57:36.755Z,89.70
2022-10-29T08:00:04.191Z,89.71
2022-10-29T08:02:31.391Z,90.17
2022-10-29T08:04:58.623Z,90.19
2022-10-29T08:07:25.786Z,89.94
2022-10-29T08:09:52.985Z,89.37
2022-10-29T08:12:20.146Z,89.21
2022-10-29T08:14:47.350Z,88.92
2022-10-29T08:17:14.522Z,89.02
2022-10-29T08:19:41.679Z,89.05
2022-10-29T08:22:08.841Z,88.87
2022-10-29T08:24:35.998Z,88.26
2022-10-29T08:27:03.189Z,87.66
2022-10-29T08:29:30.329Z,87.46
2022-10-29T08:31:57.467Z,86.69
2022-10-29T08:34:24.653Z,86.75
2022-10-29T08:36:51.817Z,87.06
2022-10-29T08:39:18.966Z,86.24
2022-10-29T08:42:10.535Z,86.45
2022-10-29T08:44:46.212Z,85.44
2022-10-29T08:47:22.087Z,84.77
2022-10-29T08:49:59.386Z,85.62
2022-10-29T08:52:28.751Z,83.94
2022-10-29T08:55:11.155Z,81.70
2022-10-29T08:57:43.159Z,81.58
2022-10-29T09:00:29.479Z,81.33
2022-10-29T09:02:59.232Z,80.14
2022-10-29T09:05:31.740Z,79.86
2022-10-29T09:08:25.717Z,80.64
2022-10-29T09:10:57.268Z,81.21
2022-10-29T09:13:30.878Z,81.49
2022-10-29T09:16:28.644Z,80.77
2022-10-29T09:19:20.717Z,80.90
2022-10-29T09:22:06.183Z,79.54
2022-10-29T09:24:47.732Z,79.46
2022-10-29T09:27:46.116Z,77.65
2022-10-29T09:30:22.726Z,77.81
2022-10-29T09:33:11.100Z,78.96
2022-10-29T09:35:44.603Z,78.71
2022-10-29T09:38:18.507Z,76.38
2022-10-29T09:40:46.292Z,77.83
2022-10-29T09:43:42.524Z,76.06
2022-10-29T09:46:26.022Z,77.80
2022-10-29T09:49:08.151Z,76.58
2022-10-29T09:52:02.400Z,75.86
2022-10-29T09:54:30.828Z,77.61
2022-10-29T09:56:59.231Z,78.19
2022-10-29T09:59:44.799Z,78.33
2022-10-29T10:02:52.839Z,77.72
2022-10-29T10:05:25.576Z,77.41
2022-10-29T10:08:15.027Z,75.75
2022-10-29T10:10:55.585Z,76.22
2022-10-29T10:13:27.373Z,77.12
2022-10-29T10:16:00.902Z,76.15
2022-10-29T10:18:40.162Z,76.21
2022-10-29T10:21:10.739Z,75.50
2022-10-29T10:23:49.034Z,78.02
2022-10-29T10:26:43.228Z,75.91
2022-10-29T10:29:16.236Z,76.47
2022-10-29T10:31:46.017Z,77.27
2022-10-29T10:34:27.029Z,76.18
2022-10-29T10:37:19.539Z,75.72
2022-10-29T10:40:00.934Z,76.00
2022-10-29T10:42:32.379Z,76.66
2022-10-29T10:45:17.076Z,77.26
2022-10-29T10:47:48.833Z,76.73
2022-10-29T10:50:30.575Z,77.42
2022-10-29T10:53:04.564Z,77.82
2022-10-29T10:55:32.562Z,77.14
2022-10-29T10:58:09.805Z,78.00
2022-10-29T11:00:41.613Z,76.06
2022-10-29T11:03:32.356Z,75.69
2022-10-29T11:06:39.027Z,75.03
2022-10-29T11:09:12.381Z,74.53
2022-10-29T11:11:58.000Z,75.43
2022-10-29T11:14:36.569Z,74.43
2022-10-29T11:17:06.643Z,73.93
2022-10-29T11:19:41.773Z,74.54
2022-10-29T11:22:32.107Z,74.03
2022-10-29T11:25:22.060Z,76.29
2022-10-29T11:28:05.201Z,73.79
2022-10-29T11:30:36.995Z,74.87
2022-10-29T11:33:24.812Z,73.48
2022-10-29T11:36:21.644Z,75.36
2022-10-29T11:39:10.960Z,75.15
2022-10-29T11:42:00.035Z,75.31
2022-10-29T11:44:28.050Z,74.40
2022-10-29T11:47:24.858Z,73.70
2022-10-29T11:50:30.777Z,73.22
2022-10-29T11:53:33.061Z,73.28
2022-10-29T11:56:43.813Z,72.10
2022-10-29T11:59:48.614Z,72.29
2022-10-29T12:02:47.200Z,71.85
2022-10-29T12:05:46.308Z,71.52
2022-10-29T12:08:26.445Z,72.61
2022-10-29T12:11:31.152Z,72.49
2022-10-29T12:14:45.863Z,74.32
2022-10-29T12:17:26.889Z,70.89
2022-10-29T12:20:03.554Z,71.83
2022-10-29T12:22:44.689Z,72.45
2022-10-29T12:25:23.277Z,69.58
2022-10-29T12:28:19.618Z,68.52
2022-10-29T12:31:04.208Z,68.28
2022-10-29T12:33:56.861Z,68.20
2022-10-29T12:36:44.497Z,69.54
2022-10-29T12:39:19.165Z,68.31
2022-10-29T12:41:54.216Z,69.14
2022-10-29T12:44:45.405Z,71.75
2022-10-29T12:47:18.354Z,70.93
2022-10-29T12:50:03.785Z,71.86
2022-10-29T12:52:44.402Z,71.21
2022-10-29T12:55:13.744Z,73.26
2022-10-29T12:57:41.136Z,72.02
2022-10-29T13:00:33.375Z,71.84
2022-10-29T13:03:01.121Z,72.11
2022-10-29T13:05:36.017Z,73.04
2022-10-29T13:08:03.107Z,72.11
2022-10-29T13:10:56.389Z,74.02
2022-10-29T13:13:42.053Z,72.90
2022-10-29T13:16:19.330Z,74.38
2022-10-29T13:19:22.201Z,73.57
2022-10-29T13:21:57.161Z,73.68
2022-10-29T13:24:25.044Z,74.54
2022-10-29T13:27:01.092Z,75.19
2022-10-29T13:29:50.308Z,74.75
2022-10-29T13:32:50.065Z,75.01
2022-10-29T13:35:17.142Z,75.12
2022-10-29T13:37:47.285Z,76.12
2022-10-29T13:40:23.604Z,75.54
2022-10-29T13:43:00.275Z,74.72
2022-10-29T13:45:27.521Z,73.71
2022-10-29T13:48:01.642Z,74.12
2022-10-29T13:50:30.518Z,75.86
2022-10-29T13:53:00.569Z,76.76
2022-10-29T13:55:31.023Z,76.71
2022-10-29T13:58:27.590Z,77.14
2022-10-29T14:00:57.392Z,78.00
2022-10-29T14:03:42.996Z,77.90
2022-10-29T14:06:16.339Z,78.02
2022-10-29T14:09:29.423Z,77.74
2022-10-29T14:12:01.054Z,77.53
2022-10-29T14:14:36.078Z,78.29
2022-10-29T14:17:16.789Z,76.86
2022-10-29T14:19:51.413Z,77.24
2022-10-29T14:22:35.585Z,76.88
2022-10-29T14:25:22.346Z,77.98
2022-10-29T14:28:27.455Z,78.22
2022-10-29T14:31:10.872Z,78.94
2022-10-29T14:33:39.908Z,78.33
2022-10-29T14:36:25.320Z,79.70
2022-10-29T14:38:58.378Z,79.42
2022-10-29T14:41:26.391Z,79.18
2022-10-29T14:44:17.908Z,80.86
2022-10-29T14:47:12.716Z,80.38
2022-10-29T14:49:44.670Z,80.45
2022-10-29T14:52:41.190Z,80.10
2022-10-29T14:55:22.402Z,80.68
2022-10-29T14:58:12.752Z,79.53
2022-10-29T15:00:49.726Z,79.58
2022-10-29T15:03:21.758Z,80.00
2022-10-29T15:05:49.494Z,79.26
2022-10-29T15:08:21.884Z,78.55
2022-10-29T15:10:54.316Z,78.35
2022-10-29T15:13:31.284Z,78.84
2022-10-29T15:16:16.423Z,79.90
2022-10-29T15:18:50.839Z,80.07
2022-10-29T15:21:30.664Z,80.39
2022-10-29T15:24:03.925Z,79.98
2022-10-29T15:26:31.149Z,80.26
2022-10-29T15:28:58.398Z,80.23
2022-10-29T15:31:33.665Z,80.26
2022-10-29T15:34:27.649Z,80.40
2022-10-29T15:36:57.646Z,80.36
2022-10-29T15:39:26.946Z,80.77
2022-10-29T15:41:57.088Z,81.06
2022-10-29T15:44:37.981Z,80.65
2022-10-29T15:47:41.667Z,81.89
2022-10-29T15:50:13.393Z,82.14
2022-10-29T15:52:43.532Z,82.10
2022-10-29T15:55:34.577Z,82.62
2022-10-29T15:58:06.946Z,82.39
2022-10-29T16:00:34.093Z,82.50
2022-10-29T16:03:16.870Z,84.24
2022-10-29T16:05:46.946Z,83.70
2022-10-29T16:08:41.171Z,83.70
2022-10-29T16:11:15.975Z,82.65
2022-10-29T16:13:43.313Z,82.44
2022-10-29T16:16:17.414Z,82.56
2022-10-29T16:18:45.402Z,83.29
2022-10-29T16:21:23.151Z,83.62
2022-10-29T16:23:51.338Z,84.09
2022-10-29T16:26:20.793Z,84.53
2022-10-29T16:28:48.080Z,84.27
2022-10-29T16:31:28.545Z,84.32
2022-10-29T16:33:58.129Z,84.40
2022-10-29T16:36:25.590Z,84.92
2022-10-29T16:38:52.828Z,84.40
2022-10-29T16:41:20.438Z,84.32
2022-10-29T16:43:48.330Z,84.34
2022-10-29T16:46:15.885Z,85.18
2022-10-29T16:48:43.512Z,85.23
2022-10-29T16:51:10.681Z,85.61
2022-10-29T16:53:37.851Z,85.36
2022-10-29T16:56:05.348Z,85.02
2022-10-29T16:58:32.523Z,85.48
2022-10-29T17:01:07.686Z,85.76
2022-10-29T17:03:35.544Z,85.88
2022-10-29T17:06:08.184Z,85.95
2022-10-29T17:08:36.373Z,85.86
2022-10-29T17:11:05.980Z,85.69
2022-10-29T17:13:34.425Z,85.89
2022-10-29T17:16:05.709Z,85.72
2022-10-29T17:18:33.015Z,86.25
2022-10-29T17:21:01.361Z,86.05
2022-10-29T17:23:29.179Z,85.68
2022-10-29T17:25:57.291Z,86.33
2022-10-29T17:28:25.720Z,86.25
2022-10-29T17:30:52.998Z,86.65
2022-10-29T17:33:20.324Z,86.56
2022-10-29T17:35:47.510Z,86.72
2022-10-29T17:38:14.730Z,86.79
2022-10-29T17:40:44.444Z,86.95
2022-10-29T17:43:11.611Z,87.58
2022-10-29T17:45:38.854Z,87.78
2022-10-29T17:48:07.350Z,87.78
2022-10-29T17:50:34.492Z,87.30
2022-10-29T17:53:01.867Z,87.01
2022-10-29T17:55:29.045Z,87.32
2022-10-29T17:57:56.574Z,87.71
2022-10-29T18:00:24.115Z,87.94
2022-10-29T18:02:51.646Z,88.12
2022-10-29T18:05:19.538Z,88.42
2022-10-29T18:07:46.734Z,88.66
2022-10-29T18:10:13.998Z,88.75
2022-10-29T18:12:41.182Z,88.92
2022-10-29T18:15:08.950Z,89.08
2022-10-29T18:17:36.704Z,89.68
2022-10-29T18:20:04.785Z,89.81
2022-10-29T18:22:31.968Z,90.11
2022-10-29T18:24:59.144Z,90.54
2022-10-29T18:27:26.382Z,90.71
2022-10-29T18:29:53.624Z,90.79
2022-10-29T18:32:20.941Z,90.74
2022-10-29T18:34:48.115Z,91.09
2022-10-29T18:37:15.346Z,91.63
2022-10-29T18:39:42.535Z,92.47
2022-10-29T18:42:10.277Z,92.49
2022-10-29T18:44:39.023Z,92.76
2022-10-29T18:47:06.226Z,92.80
2022-10-29T18:49:33.385Z,93.00
2022-10-29T18:52:00.573Z,92.96
2022-10-29T18:54:27.808Z,93.07
2022-10-29T18:56:55.044Z,92.82
2022-10-29T18:59:22.231Z,92.44
2022-10-29T19:01:49.560Z,92.73
2022-10-29T19:04:16.923Z,92.92
2022-10-29T19:06:45.400Z,92.88
2022-10-29T19:09:12.666Z,92.67
2022-10-29T19:11:39.913Z,92.68
2022-10-29T19:14:09.567Z,92.56
2022-10-29T19:16:36.761Z,92.46
2022-10-29T19:19:09.560Z,92.48
2022-10-29T19:21:38.029Z,92.58
2022-10-29T19:24:06.116Z,92.72
2022-10-29T19:26:34.976Z,92.89
2022-10-29T19:29:03.176Z,93.25
2022-10-29T19:31:32.015Z,94.12
2022-10-29T19:34:01.122Z,93.91
2022-10-29T19:36:29.407Z,94.07
2022-10-29T19:38:57.162Z,94.08
2022-10-29T19:41:24.593Z,94.01
2022-10-29T19:43:51.804Z,93.94
2022-10-29T19:46:24.013Z,94.46
2022-10-29T19:48:53.122Z,94.40
2022-10-29T19:51:21.173Z,94.45
2022-10-29T19:53:49.169Z,94.45
2022-10-29T19:56:17.078Z,94.37
2022-10-29T19:58:44.925Z,94.53
2022-10-29T20:01:16.144Z,95.13
2022-10-29T20:03:43.709Z,95.07
2022-10-29T20:06:10.901Z,94.92
2022-10-29T20:08:38.187Z,94.56
2022-10-29T20:11:05.730Z,94.53
2022-10-29T20:13:33.163Z,94.68
2022-10-29T20:16:01.361Z,95.08
2022-10-29T20:18:28.535Z,95.14
2022-10-29T20:20:56.837Z,95.16
2022-10-29T20:23:25.855Z,95.19
2022-10-29T20:25:53.261Z,95.11
2022-10-29T20:28:20.411Z,95.28
2022-10-29T20:30:47.543Z,95.71
2022-10-29T20:33:14.844Z,96.35
2022-10-29T20:35:42.124Z,96.43
2022-10-29T20:38:09.272Z,96.75
2022-10-29T20:40:36.438Z,96.26
2022-10-29T20:43:03.679Z,96.12
2022-10-29T20:45:31.000Z,96.52
2022-10-29T20:47:58.400Z,96.45
2022-10-29T20:50:25.788Z,96.29
2022-10-29T20:52:53.695Z,96.17
2022-10-29T20:55:20.897Z,96.44
2022-10-29T20:57:48.049Z,96.22
2022-10-29T21:00:15.387Z,96.55
2022-10-29T21:02:42.650Z,96.40
2022-10-29T21:05:09.955Z,96.16
2022-10-29T21:07:38.459Z,96.47
2022-10-29T21:10:06.656Z,96.30
2022-10-29T21:12:33.897Z,96.49
2022-10-29T21:15:01.217Z,96.21
2022-10-29T21:17:28.367Z,96.54
2022-10-29T21:19:55.531Z,96.37
2022-10-29T21:22:22.682Z,96.62
2022-10-29T21:24:49.836Z,97.37
2022-10-29T21:27:16.990Z,97.17
2022-10-29T21:29:44.153Z,97.38
2022-10-29T21:32:12.997Z,96.80
2022-10-29T21:34:43.876Z,96.79
2022-10-29T21:37:11.041Z,96.84
2022-10-29T21:39:38.212Z,96.87
2022-10-29T21:42:05.406Z,96.79
2022-10-29T21:44:32.575Z,97.20
2022-10-29T21:46:59.752Z,97.23
2022-10-29T21:49:26.936Z,97.45
2022-10-29T21:51:54.087Z,97.51
2022-10-29T21:54:23.084Z,97.03
2022-10-29T21:56:52.908Z,96.77
2022-10-29T21:59:20.068Z,96.75
2022-10-29T22:01:47.242Z,96.88
2022-10-29T22:04:16.414Z,96.71
2022-10-29T22:06:43.554Z,96.19
2022-10-29T22:09:11.859Z,96.50
2022-10-29T22:11:39.071Z,96.83
2022-10-29T22:14:06.312Z,97.20
2022-10-29T22:16:34.204Z,97.17
2022-10-29T22:19:01.447Z,97.38
2022-10-29T22:21:28.824Z,96.91
2022-10-29T22:23:57.511Z,97.36
2022-10-29T22:26:28.906Z,97.12
2022-10-29T22:28:56.463Z,96.72
2022-10-29T22:31:24.648Z,97.15
2022-10-29T22:33:51.997Z,97.09
2022-10-29T22:36:21.267Z,97.14
2022-10-29T22:38:55.816Z,97.16
2022-10-29T22:41:23.468Z,97.48
2022-10-29T22:43:50.639Z,97.51
2022-10-29T22:46:19.017Z,97.08
2022-10-29T22:48:46.810Z,97.25
2022-10-29T22:51:16.784Z,97.35
2022-10-29T22:53:44.320Z,96.93
2022-10-29T22:56:17.735Z,97.36
2022-10-29T22:58:45.294Z,97.29
2022-10-29T23:01:14.873Z,97.43
2022-10-29T23:03:42.564Z,97.52
2022-10-29T23:06:11.768Z,97.93
2022-10-29T23:08:38.913Z,98.23
2022-10-29T23:11:19.326Z,98.52
2022-10-29T23:13:47.450Z,98.36
2022-10-29T23:16:14.756Z,97.87
2022-10-29T23:18:42.560Z,98.46
2022-10-29T23:21:10.280Z,98.21
2022-10-29T23:23:37.491Z,98.17
2022-10-29T23:26:04.705Z,98.08
2022-10-29T23:28:34.366Z,98.03
2022-10-29T23:31:03.149Z,98.27
2022-10-29T23:33:31.097Z,97.98
2022-10-29T23:36:08.192Z,97.90
2022-10-29T23:38:35.776Z,97.80
2022-10-29T23:41:03.257Z,97.99
2022-10-29T23:43:30.698Z,97.91
2022-10-29T23:45:57.999Z,97.98
2022-10-29T23:48:25.254Z,98.22
2022-10-29T23:50:52.915Z,97.77
2022-10-29T23:53:20.177Z,97.99
2022-10-29T23:55:47.446Z,97.67
2022-10-29T23:58:15.260Z,98.13
